• Join FlightAware (Why Join?)
  • Login
  • US Flag 
11:43AM EDT


 

Airport Tracker/Info


-or-


 

Live Flight TrackerFlight Track Log ✈ N591WA ✈ 19-Jul-2013 ✈ KETB - KHYX

Flight Track Log - Related Links

Times and Time Zones

All times are in EDT time to prevent confusion due to time zone crossing. See the N591WA flight status page for this flight to view local times or setup timezone preferences in your user account.

Time Position Orientation Groundspeed Altitude Reporting Facility
EDT Latitude Longitude Course Direction KTS MPH feet Rate Location/Type
02:49PM 43.4000 -88.0500 97° East 155 178 3,100  Level KMKE
02:50PM 43.3944 -87.9856 97° East 151 174 4,100 840 Climbing Chicago Center
02:51PM 43.3667 -87.9261 123° Southeast 157 181 5,100 960 Climbing Chicago Center
02:52PM 43.3447 -87.8742 120° Southeast 157 181 6,100 960 Climbing Chicago Center
02:53PM 43.3275 -87.8161 112° Southeast 166 191 7,100 960 Climbing Chicago Center
02:54PM 43.3222 -87.7519 96° East 169 194 8,100 900 Climbing Chicago Center
02:55PM 43.3169 -87.6878 96° East 168 193 9,000 840 Climbing Chicago Center
02:56PM 43.3117 -87.6211 96° East 174 200 9,900 960 Climbing Chicago Center
02:57PM 43.3058 -87.5417 96° East 178 205 11,100 960 Climbing Chicago Center
02:58PM 43.3003 -87.4733 96° East 179 206 12,000 840 Climbing Chicago Center
02:59PM 43.2928 -87.4031 98° East 184 212 12,900 480 Climbing Chicago Center
03:00PM 43.2872 -87.3219 95° East 206 237 13,000  Climbing Chicago Center
03:01PM 43.2797 -87.2389 97° East 217 250 13,000  Level Chicago Center
03:02PM 43.2719 -87.1589 98° East 213 245 13,000  Level Chicago Center
03:03PM 43.2650 -87.0792 97° East 211 243 13,000  Level Chicago Center
03:04PM 43.2578 -86.9839 96° East 208 239 13,000  Level Chicago Center
03:05PM 43.2506 -86.9047 97° East 209 241 13,000  Level Chicago Center
03:06PM 43.2431 -86.8261 97° East 209 241 13,000  Level Chicago Center
03:07PM 43.2361 -86.7461 97° East 210 242 13,000  Level Chicago Center
03:08PM 43.2289 -86.6669 97° East 211 243 13,000  Level Chicago Center
03:09PM 43.2206 -86.5867 98° East 211 243 13,000  Level Chicago Center
03:10PM 43.2122 -86.4925 97° East 209 241 13,000  Level Chicago Center
03:12PM 43.2056 -86.4133 97° East 209 241 13,000  Level Chicago Center
03:13PM 43.1975 -86.3339 98° East 210 242 13,000  Level Chicago Center
03:14PM 43.1953 -86.2525 92° East 212 244 13,000  Level Chicago Center
03:15PM 43.2061 -86.1744 79° East 209 241 13,000  Level Chicago Center
03:16PM 43.2142 -86.0933 82° East 211 243 13,000  Level Chicago Center
03:17PM 43.2228 -86.0139 82° East 210 242 13,000  Level Chicago Center
03:18PM 43.2331 -85.9181 82° East 210 242 13,000 -60 Level Chicago Center
03:19PM 43.2414 -85.8375 82° East 211 243 12,900 -60 Descending Chicago Center
03:20PM 43.2500 -85.7567 82° East 213 245 12,900  Level Chicago Center
03:21PM 43.2589 -85.6747 82° East 215 247 12,900  Level Chicago Center
03:22PM 43.2667 -85.5947 82° East 213 245 12,900  Level Chicago Center
03:23PM 43.2758 -85.5117 81° East 217 250 12,900 -120 Level Chicago Center
03:24PM 43.2833 -85.4292 83° East 218 251 12,700 -480 Descending Chicago Center
03:25PM 43.2944 -85.3231 82° East 230 265 12,000 -720 Descending Chicago Center
03:26PM 43.3036 -85.2364 82° East 232 267 11,300 -540 Descending Chicago Center
03:27PM 43.3122 -85.1492 82° East 232 267 10,900 -420 Descending Chicago Center
03:28PM 43.3208 -85.0667 82° East 223 257 10,500 -540 Descending Chicago Center
03:29PM 43.3283 -84.9819 83° East 222 255 9,900 -600 Descending Chicago Center
03:30PM 43.3364 -84.8975 82° East 223 257 9,300 -720 Descending Chicago Center
03:31PM 43.3469 -84.7933 82° East 229 264 8,500 -780 Descending Chicago Center
03:32PM 43.3550 -84.7067 83° East 230 265 7,800 -720 Descending Chicago Center
03:33PM 43.3628 -84.6200 83° East 230 265 7,100 -660 Descending Chicago Center
03:34PM 43.3706 -84.5303 83° East 233 268 6,500 -660 Descending Chicago Center
03:35PM 43.3797 -84.4458 81° East 229 264 5,800 -660 Descending Chicago Center
03:36PM 43.3872 -84.3622 83° East 224 258 5,200 -600 Descending Chicago Center
03:37PM 43.3961 -84.2764 82° East 225 259 4,600 -600 Descending Chicago Center